Time;durP1;ratioP1;P1;durP2;ratioP2;P2;SDS_P1;SDS_P2;PMS_P1;PMS_P2;Temp;Humidity;BMP_temperature;BMP_pressure;BME280_temperature;BME280_humidity;BME280_pressure;Samples;Min_cycle;Max_cycle;Signal;HPM_P1;HPM_P2
2021/12/30 00:00:41;;;;;;;19.07;6.77;;;;;;;;;;5105605;28;20205;-81
2021/12/30 00:03:09;;;;;;;19.83;5.70;;;;;;;;;;5105225;28;20257;-80
2021/12/30 00:05:38;;;;;;;31.53;11.53;;;;;;;;;;5106133;28;20198;-81
2021/12/30 00:08:05;;;;;;;36.77;13.33;;;;;;;;;;5102205;28;20367;-81
2021/12/30 00:10:33;;;;;;;18.77;6.03;;;;;;;;;;5101348;28;20197;-81
2021/12/30 00:13:00;;;;;;;30.73;9.47;;;;;;;;;;5102845;28;20280;-80
2021/12/30 00:15:28;;;;;;;45.27;14.23;;;;;;;;;;5106008;28;20212;-81
2021/12/30 00:17:55;;;;;;;59.17;20.60;;;;;;;;;;5100366;28;20230;-81
2021/12/30 00:20:22;;;;;;;14.80;3.97;;;;;;;;;;5106988;28;20243;-81
2021/12/30 00:22:51;;;;;;;21.43;9.00;;;;;;;;;;5102875;28;20198;-81
2021/12/30 00:25:18;;;;;;;43.33;20.70;;;;;;;;;;5102250;28;20683;-81
2021/12/30 00:27:45;;;;;;;17.63;3.53;;;;;;;;;;5103470;28;20238;-81
2021/12/30 00:30:13;;;;;;;20.80;5.03;;;;;;;;;;5098565;28;20643;-80
2021/12/30 00:32:41;;;;;;;13.03;4.27;;;;;;;;;;5101304;28;20193;-81
2021/12/30 00:35:09;;;;;;;11.17;3.43;;;;;;;;;;5101934;28;20205;-81
2021/12/30 00:37:37;;;;;;;11.27;3.27;;;;;;;;;;5101188;28;20255;-80
2021/12/30 00:40:06;;;;;;;12.73;2.90;;;;;;;;;;5103089;28;20290;-80
2021/12/30 00:42:33;;;;;;;18.03;3.60;;;;;;;;;;5103997;28;20197;-80
2021/12/30 00:45:00;;;;;;;16.03;2.77;;;;;;;;;;5098486;28;20582;-80
2021/12/30 00:47:27;;;;;;;12.37;2.60;;;;;;;;;;5099234;28;20313;-80
2021/12/30 00:49:56;;;;;;;16.67;3.43;;;;;;;;;;5101495;28;20257;-81
2021/12/30 00:52:24;;;;;;;15.93;2.90;;;;;;;;;;5100459;28;20270;-80
2021/12/30 00:54:51;;;;;;;16.50;2.90;;;;;;;;;;5106289;28;20448;-80
2021/12/30 00:57:20;;;;;;;11.33;3.17;;;;;;;;;;5102685;28;20304;-80
2021/12/30 00:59:47;;;;;;;16.80;3.50;;;;;;;;;;5098681;28;20285;-80
2021/12/30 01:02:14;;;;;;;13.73;2.60;;;;;;;;;;5100995;28;20269;-80
2021/12/30 01:04:41;;;;;;;20.63;3.53;;;;;;;;;;5101547;28;20202;-80
2021/12/30 01:07:09;;;;;;;19.27;3.20;;;;;;;;;;5104901;28;20273;-80
2021/12/30 01:09:36;;;;;;;15.37;2.80;;;;;;;;;;5123045;22;20237;-81
2021/12/30 01:12:03;;;;;;;13.67;3.33;;;;;;;;;;5081927;28;20202;-81
2021/12/30 01:14:35;;;;;;;20.33;3.43;;;;;;;;;;5081320;28;20208;-82
2021/12/30 01:17:14;;;;;;;14.97;2.93;;;;;;;;;;5078731;28;20221;-81
2021/12/30 01:19:45;;;;;;;18.70;3.20;;;;;;;;;;5065371;28;20304;-83
2021/12/30 01:22:14;;;;;;;15.27;2.90;;;;;;;;;;5058798;28;20214;-81
2021/12/30 01:24:41;;;;;;;15.30;3.17;;;;;;;;;;5050715;28;20199;-83
2021/12/30 01:27:08;;;;;;;12.97;3.50;;;;;;;;;;5059161;28;20216;-82
2021/12/30 01:29:37;;;;;;;20.63;4.23;;;;;;;;;;5060297;28;20301;-82
2021/12/30 01:32:04;;;;;;;22.70;3.73;;;;;;;;;;5061667;28;20298;-81
2021/12/30 01:34:32;;;;;;;17.23;3.03;;;;;;;;;;5066962;28;20242;-80
2021/12/30 01:37:01;;;;;;;23.20;4.37;;;;;;;;;;5048856;28;20225;-81
2021/12/30 01:39:29;;;;;;;12.07;3.20;;;;;;;;;;5054518;28;20222;-81
2021/12/30 01:41:57;;;;;;;20.17;3.60;;;;;;;;;;5055463;28;20202;-80
2021/12/30 01:44:25;;;;;;;17.47;3.00;;;;;;;;;;5057953;28;20245;-80
2021/12/30 01:46:53;;;;;;;20.27;3.57;;;;;;;;;;5055644;28;20290;-80
2021/12/30 01:49:21;;;;;;;15.33;4.00;;;;;;;;;;5057473;28;20223;-82
2021/12/30 01:51:49;;;;;;;20.23;3.80;;;;;;;;;;5055942;28;20203;-80
2021/12/30 01:54:16;;;;;;;17.30;3.23;;;;;;;;;;5059876;28;20482;-81
2021/12/30 01:56:44;;;;;;;15.73;2.90;;;;;;;;;;5052757;28;20212;-80
2021/12/30 01:59:12;;;;;;;19.07;3.30;;;;;;;;;;5057267;28;20314;-80
2021/12/30 02:01:39;;;;;;;13.80;3.00;;;;;;;;;;5048821;28;20211;-80
2021/12/30 02:04:07;;;;;;;22.33;3.13;;;;;;;;;;5050898;28;20203;-80
2021/12/30 02:06:34;;;;;;;12.50;2.87;;;;;;;;;;5051473;28;20196;-81
2021/12/30 02:09:02;;;;;;;22.03;3.50;;;;;;;;;;5060449;28;20235;-80
2021/12/30 02:11:29;;;;;;;14.90;3.47;;;;;;;;;;5053534;28;20671;-80
2021/12/30 02:13:57;;;;;;;11.90;2.47;;;;;;;;;;5056882;28;20207;-81
2021/12/30 02:16:25;;;;;;;17.73;3.17;;;;;;;;;;5055621;28;20651;-81
2021/12/30 02:18:52;;;;;;;14.03;2.83;;;;;;;;;;5053840;28;20235;-81
2021/12/30 02:21:21;;;;;;;20.77;3.23;;;;;;;;;;5052608;28;20207;-80
2021/12/30 02:23:48;;;;;;;19.20;3.23;;;;;;;;;;5054576;28;20203;-80
2021/12/30 02:26:17;;;;;;;15.20;2.83;;;;;;;;;;5054614;28;20199;-81
2021/12/30 02:28:45;;;;;;;19.47;2.93;;;;;;;;;;5053405;28;20310;-80
2021/12/30 02:31:13;;;;;;;14.57;3.53;;;;;;;;;;5048102;28;20202;-81
2021/12/30 02:33:41;;;;;;;10.60;2.83;;;;;;;;;;5050390;28;20325;-81
2021/12/30 02:36:08;;;;;;;15.33;2.77;;;;;;;;;;5056481;28;20211;-81
2021/12/30 02:38:36;;;;;;;22.37;2.97;;;;;;;;;;5047196;28;20690;-80
2021/12/30 02:41:05;;;;;;;15.97;3.10;;;;;;;;;;5045139;28;20294;-81
2021/12/30 02:43:33;;;;;;;14.03;3.17;;;;;;;;;;5046260;28;20214;-80
2021/12/30 02:46:01;;;;;;;14.47;3.17;;;;;;;;;;5057497;28;20579;-79
2021/12/30 02:48:30;;;;;;;16.20;2.97;;;;;;;;;;5058659;28;20222;-81
2021/12/30 02:50:58;;;;;;;24.60;3.40;;;;;;;;;;5047857;28;20214;-80
2021/12/30 02:53:26;;;;;;;12.00;2.77;;;;;;;;;;5052943;28;20211;-82
2021/12/30 02:55:55;;;;;;;22.07;3.80;;;;;;;;;;5057069;28;20237;-80
2021/12/30 02:58:22;;;;;;;15.40;3.33;;;;;;;;;;5057126;28;20253;-82
2021/12/30 03:00:50;;;;;;;15.73;3.43;;;;;;;;;;5062377;28;20540;-81
2021/12/30 03:03:18;;;;;;;19.33;3.00;;;;;;;;;;5064141;28;20352;-82
2021/12/30 03:05:45;;;;;;;15.57;3.67;;;;;;;;;;5060522;28;20214;-81
2021/12/30 03:08:12;;;;;;;18.27;3.20;;;;;;;;;;5059957;28;20212;-80
2021/12/30 03:10:40;;;;;;;15.40;2.87;;;;;;;;;;5052788;28;20195;-81
2021/12/30 03:13:09;;;;;;;13.87;2.73;;;;;;;;;;5062046;28;20290;-81
2021/12/30 03:15:36;;;;;;;18.27;2.80;;;;;;;;;;5055832;28;20205;-81
2021/12/30 03:18:03;;;;;;;14.93;3.43;;;;;;;;;;5054618;28;20208;-82
2021/12/30 03:20:33;;;;;;;9.73;2.90;;;;;;;;;;5049838;28;20225;-80
2021/12/30 03:23:00;;;;;;;10.07;3.33;;;;;;;;;;5052075;28;20303;-81
2021/12/30 03:25:27;;;;;;;14.40;2.90;;;;;;;;;;5057371;28;20319;-82
2021/12/30 03:27:54;;;;;;;17.07;2.93;;;;;;;;;;5054148;28;20240;-81
2021/12/30 03:30:23;;;;;;;13.77;3.20;;;;;;;;;;5046585;28;20215;-81
2021/12/30 03:32:50;;;;;;;14.77;3.00;;;;;;;;;;5052689;28;20199;-81
2021/12/30 03:35:17;;;;;;;15.97;3.30;;;;;;;;;;5047433;28;20219;-81
2021/12/30 03:37:44;;;;;;;15.67;3.17;;;;;;;;;;5047320;28;20250;-81
2021/12/30 03:40:14;;;;;;;19.10;3.40;;;;;;;;;;5049072;28;20615;-81
2021/12/30 03:42:41;;;;;;;22.90;3.47;;;;;;;;;;5055083;28;20617;-81
2021/12/30 03:45:09;;;;;;;15.13;3.13;;;;;;;;;;5052806;28;20209;-81
2021/12/30 03:47:41;;;;;;;16.87;3.57;;;;;;;;;;5058010;28;20196;-80
2021/12/30 03:50:10;;;;;;;19.03;3.13;;;;;;;;;;5050577;28;20334;-81
2021/12/30 03:52:38;;;;;;;9.73;3.03;;;;;;;;;;5052276;28;20235;-81
2021/12/30 03:55:05;;;;;;;14.80;3.47;;;;;;;;;;5048050;28;20203;-81
2021/12/30 04:03:04;;;;;;;18.87;4.20;;;;;;;;;;5313700;22;20257;-83
2021/12/30 04:05:32;;;;;;;17.50;3.40;;;;;;;;;;5114653;28;20621;-83
2021/12/30 04:07:59;;;;;;;18.73;3.63;;;;;;;;;;5114420;28;20204;-84
2021/12/30 04:10:26;;;;;;;20.13;3.50;;;;;;;;;;5088698;28;20199;-84
2021/12/30 04:12:54;;;;;;;17.53;3.30;;;;;;;;;;5088382;28;20819;-83
2021/12/30 04:15:22;;;;;;;16.80;3.33;;;;;;;;;;5085301;28;20270;-82
2021/12/30 04:17:49;;;;;;;16.33;3.30;;;;;;;;;;5089230;28;20653;-82
2021/12/30 05:04:23;;;;;;;18.63;4.33;;;9.80;99.90;;;;;;5724392;22;20225;-80
2021/12/30 05:06:50;;;;;;;20.83;4.97;;;9.80;99.90;;;;;;5083240;28;20221;-79
2021/12/30 05:09:17;;;;;;;12.53;5.57;;;9.80;99.90;;;;;;5085472;28;20196;-80
2021/12/30 05:11:44;;;;;;;14.87;4.33;;;9.90;99.90;;;;;;5083932;28;20210;-77
2021/12/30 05:14:11;;;;;;;21.63;5.80;;;9.80;99.90;;;;;;5077152;28;20584;-78
2021/12/30 05:16:39;;;;;;;18.17;5.13;;;9.90;99.90;;;;;;5068082;28;20210;-80
2021/12/30 05:19:07;;;;;;;13.97;4.77;;;9.80;99.90;;;;;;5064464;28;20210;-78
2021/12/30 05:21:35;;;;;;;16.90;5.03;;;9.80;99.90;;;;;;5064084;28;20206;-78
2021/12/30 05:24:03;;;;;;;14.17;4.60;;;9.80;99.90;;;;;;5065224;28;20227;-80
2021/12/30 05:26:30;;;;;;;16.80;4.77;;;9.80;99.90;;;;;;5067600;28;20202;-80
2021/12/30 05:28:58;;;;;;;17.20;4.97;;;9.80;99.90;;;;;;5070168;28;20206;-77
2021/12/30 05:31:25;;;;;;;18.43;5.40;;;;;;;;;;5064823;28;20210;-78
2021/12/30 05:33:53;;;;;;;15.90;4.40;;;;;;;;;;5067150;28;20232;-78
2021/12/30 05:36:20;;;;;;;17.17;4.47;;;;;;;;;;5068364;28;20214;-78
2021/12/30 05:38:49;;;;;;;17.33;4.50;;;;;;;;;;5066457;28;20297;-78
2021/12/30 05:41:16;;;;;;;15.40;4.00;;;;;;;;;;5065537;28;20233;-80
2021/12/30 05:43:43;;;;;;;14.67;3.57;;;;;;;;;;5064290;28;20229;-78
2021/12/30 05:46:10;;;;;;;12.87;3.90;;;;;;;;;;5065150;28;20224;-80
2021/12/30 05:48:38;;;;;;;13.13;3.57;;;;;;;;;;5066076;28;20200;-80
2021/12/30 05:51:05;;;;;;;15.50;3.73;;;;;;;;;;5066754;28;20259;-80
2021/12/30 05:53:32;;;;;;;12.97;3.33;;;;;;;;;;5066036;28;20293;-80
2021/12/30 05:56:01;;;;;;;10.73;2.93;;;;;;;;;;5080848;28;20269;-79
2021/12/30 05:58:28;;;;;;;12.60;3.10;;;;;;;;;;5081512;28;20266;-79
2021/12/30 06:00:55;;;;;;;11.70;2.80;;;;;;;;;;5083778;28;20222;-77
2021/12/30 06:03:22;;;;;;;13.83;3.03;;;;;;;;;;5086584;28;20620;-78
2021/12/30 06:05:49;;;;;;;7.90;2.63;;;;;;;;;;5072702;28;20293;-80
2021/12/30 06:08:17;;;;;;;12.10;2.73;;;;;;;;;;5066102;28;20567;-80
2021/12/30 06:10:45;;;;;;;11.77;2.63;;;;;;;;;;5068951;28;20285;-79
2021/12/30 06:13:14;;;;;;;13.20;2.80;;;;;;;;;;5079275;28;20660;-79
2021/12/30 06:15:41;;;;;;;6.93;2.80;;;;;;;;;;5072607;28;20209;-80
2021/12/30 06:18:08;;;;;;;10.27;2.80;;;;;;;;;;5064947;28;20234;-78
2021/12/30 06:20:35;;;;;;;14.03;3.53;;;;;;;;;;5071269;28;20696;-79
2021/12/30 06:23:02;;;;;;;11.83;3.47;;;;;;;;;;5072083;28;20501;-79
2021/12/30 06:25:30;;;;;;;10.30;3.60;;;;;;;;;;5072087;28;20296;-79
2021/12/30 06:27:57;;;;;;;9.80;3.87;;;;;;;;;;5068763;28;20229;-79
2021/12/30 06:30:26;;;;;;;13.63;4.67;;;;;;;;;;5070665;28;20635;-79
2021/12/30 06:32:53;;;;;;;13.40;4.87;;;;;;;;;;5078787;28;20293;-80
2021/12/30 06:35:20;;;;;;;9.03;4.03;;;;;;;;;;5078593;28;20261;-79
2021/12/30 06:37:48;;;;;;;10.67;4.60;;;;;;;;;;5078949;28;20226;-79
2021/12/30 06:40:15;;;;;;;11.67;4.80;;;;;;;;;;5078639;28;20253;-79
2021/12/30 06:42:43;;;;;;;14.33;5.40;;;;;;;;;;5078762;28;20280;-79
2021/12/30 06:45:11;;;;;;;11.43;4.70;;;;;;;;;;5078672;28;20241;-79
2021/12/30 06:47:41;;;;;;;13.23;4.87;;;;;;;;;;5078997;28;20295;-80
2021/12/30 06:50:11;;;;;;;10.50;4.23;;;;;;;;;;5080208;28;20206;-79
2021/12/30 06:52:38;;;;;;;10.37;4.30;;;;;;;;;;5078197;28;20202;-79
2021/12/30 06:55:06;;;;;;;11.87;4.57;;;;;;;;;;5072646;28;20241;-79
2021/12/30 06:57:34;;;;;;;10.43;4.40;;;;;;;;;;5078283;28;20584;-78
2021/12/30 07:00:01;;;;;;;9.17;4.70;;;;;;;;;;5078089;28;20301;-79
2021/12/30 07:02:28;;;;;;;11.10;4.43;;;;;;;;;;5074274;28;20194;-79
2021/12/30 07:04:56;;;;;;;6.43;3.13;;;;;;;;;;5071249;28;20294;-79
2021/12/30 07:07:24;;;;;;;9.93;3.37;;;;;;;;;;5077496;28;20206;-79
2021/12/30 07:09:51;;;;;;;7.30;3.03;;;;;;;;;;5073997;28;20206;-79
2021/12/30 07:12:18;;;;;;;7.33;3.67;;;;;;;;;;5074600;28;20198;-80
2021/12/30 07:14:46;;;;;;;11.50;3.07;;;;;;;;;;5073918;28;20276;-78
2021/12/30 07:17:13;;;;;;;7.70;3.60;;;;;;;;;;5073073;28;20206;-79
2021/12/30 07:19:40;;;;;;;13.73;3.30;;;;;;;;;;5077081;28;20207;-79
2021/12/30 07:22:09;;;;;;;8.03;3.43;;;;;;;;;;5069771;28;20700;-78
2021/12/30 07:24:36;;;;;;;7.77;3.17;;;;;;;;;;5064076;28;20310;-78
2021/12/30 07:27:03;;;;;;;8.90;4.23;;;;;;;;;;5069454;28;20201;-78
2021/12/30 07:29:30;;;;;;;8.77;3.70;;;;;;;;;;5073675;28;20210;-79
2021/12/30 07:31:57;;;;;;;6.60;2.87;;;;;;;;;;5073540;28;20199;-79
2021/12/30 07:34:24;;;;;;;7.93;2.67;;;;;;;;;;5075326;28;20267;-79
2021/12/30 07:36:52;;;;;;;8.57;3.13;;;;;;;;;;5081941;28;20297;-79
2021/12/30 07:39:20;;;;;;;7.13;2.37;;;;;;;;;;5077255;28;20288;-79
2021/12/30 07:41:47;;;;;;;4.83;2.07;;;;;;;;;;5073619;28;20223;-79
2021/12/30 07:44:15;;;;;;;6.50;2.47;;;;;;;;;;5077271;28;20268;-79
2021/12/30 07:46:42;;;;;;;4.03;1.20;;;;;;;;;;5076127;28;20284;-79
2021/12/30 07:49:12;;;;;;;2.70;1.20;;;;;;;;;;5075842;28;20202;-78
2021/12/30 07:51:39;;;;;;;4.97;1.90;;;;;;;;;;5076289;28;20229;-78
2021/12/30 07:54:07;;;;;;;1.63;0.50;;;;;;;;;;5076775;28;20226;-78
2021/12/30 07:56:35;;;;;;;2.20;0.63;;;;;;;;;;5075235;28;20285;-79
2021/12/30 07:59:02;;;;;;;3.03;0.70;;;;;;;;;;5079121;28;20203;-78
2021/12/30 08:01:29;;;;;;;1.63;0.47;;;;;;;;;;5088476;28;20257;-77
2021/12/30 08:03:57;;;;;;;0.63;0.40;;;;;;;;;;5075341;28;20272;-78
2021/12/30 08:06:27;;;;;;;0.80;0.40;;;;;;;;;;5076833;28;20558;-79
2021/12/30 08:08:54;;;;;;;0.70;0.50;;;;;;;;;;5074374;28;20695;-79
2021/12/30 08:11:21;;;;;;;1.70;0.40;;;;;;;;;;5074010;28;20207;-78
2021/12/30 08:13:50;;;;;;;0.73;0.20;;;;;;;;;;5067785;28;20650;-78
2021/12/30 08:16:17;;;;;;;0.73;0.30;;;;;;;;;;5071048;28;20232;-80
2021/12/30 08:18:44;;;;;;;0.47;0.30;;;;;;;;;;5071478;28;20270;-79
2021/12/30 08:21:12;;;;;;;0.47;0.30;;;;;;;;;;5073446;28;20730;-78
2021/12/30 08:23:45;;;;;;;2.17;0.20;;;;;;;;;;5074131;28;20270;-82
2021/12/30 08:26:12;;;;;;;2.37;0.20;;;;;;;;;;5075584;28;20284;-81
2021/12/30 08:28:41;;;;;;;0.60;0.30;;;;;;;;;;5087850;28;20293;-82
2021/12/30 08:31:10;;;;;;;0.93;0.37;;;;;;;;;;5081233;28;20599;-82
2021/12/30 08:33:37;;;;;;;0.60;0.23;;;;;;;;;;5080753;28;20256;-82
2021/12/30 08:36:05;;;;;;;1.30;0.50;;;;;;;;;;5083477;28;20512;-82
2021/12/30 08:38:32;;;;;;;0.67;0.40;;;;;;;;;;5080645;28;20234;-82
2021/12/30 08:41:00;;;;;;;0.60;0.40;;;;;;;;;;5082872;28;20328;-83
2021/12/30 08:43:27;;;;;;;0.53;0.30;;;;;;;;;;5081906;28;20207;-84
2021/12/30 08:45:54;;;;;;;0.37;0.20;;;;;;;;;;5080843;28;20201;-83
2021/12/30 08:48:23;;;;;;;0.50;0.40;;;;;;;;;;5084833;28;20198;-84
2021/12/30 08:50:50;;;;;;;0.30;0.20;;;;;;;;;;5076453;28;20198;-82
2021/12/30 08:53:17;;;;;;;0.27;0.17;;;;;;;;;;5083607;28;20202;-83
2021/12/30 08:55:44;;;;;;;1.07;0.30;;;;;;;;;;5083152;28;20210;-83
2021/12/30 08:58:12;;;;;;;0.37;0.20;;;;;;;;;;5082799;28;20234;-83
2021/12/30 09:00:41;;;;;;;0.40;0.30;;;;;;;;;;5080022;28;20281;-83
2021/12/30 09:03:09;;;;;;;2.40;0.40;;;;;;;;;;5077031;28;20232;-83
2021/12/30 09:05:38;;;;;;;0.50;0.30;;;;;;;;;;5082837;28;20244;-83
2021/12/30 09:08:05;;;;;;;1.60;0.30;;;;;;;;;;5082226;28;20689;-82
2021/12/30 09:10:35;;;;;;;0.50;0.30;;;;;;;;;;5083779;28;20426;-83
2021/12/30 09:13:02;;;;;;;2.00;0.30;;;;;;;;;;5080061;28;20217;-83
2021/12/30 09:15:29;;;;;;;1.07;0.40;;;;;;;;;;5080350;28;20250;-83
2021/12/30 09:17:57;;;;;;;3.50;0.90;;;;;;;;;;5076624;28;20375;-82
2021/12/30 09:20:26;;;;;;;0.43;0.30;;;;;;;;;;5076698;28;20281;-82
2021/12/30 09:22:55;;;;;;;0.60;0.23;;;;;;;;;;5074114;28;20226;-82
2021/12/30 09:25:24;;;;;;;1.43;0.43;;;;;;;;;;5077306;28;20222;-81
2021/12/30 09:27:52;;;;;;;2.83;0.40;;;;;;;;;;5082324;28;20212;-83
2021/12/30 09:30:19;;;;;;;1.37;0.80;;;;;;;;;;5077494;28;20233;-84
2021/12/30 09:32:50;;;;;;;0.80;0.30;;;;;;;;;;5073171;28;20277;-82
2021/12/30 09:35:17;;;;;;;0.90;0.20;;;;;;;;;;5077845;28;20309;-82
2021/12/30 09:37:45;;;;;;;0.60;0.40;;;;;;;;;;5083883;28;20209;-83
2021/12/30 09:40:15;;;;;;;0.60;0.23;;;;;;;;;;5073231;28;20210;-82
2021/12/30 09:42:45;;;;;;;1.33;0.50;;;;;;;;;;5074275;28;20224;-83
2021/12/30 09:45:12;;;;;;;0.20;0.20;;;;;;;;;;5069014;28;20287;-81
2021/12/30 09:47:43;;;;;;;0.90;0.30;;;;;;;;;;5073126;28;20217;-82
2021/12/30 09:50:10;;;;;;;1.60;0.40;;;;;;;;;;5072600;28;20285;-81
2021/12/30 09:52:38;;;;;;;0.20;0.10;;;;;;;;;;5082115;28;20203;-83
2021/12/30 09:55:05;;;;;;;1.30;0.60;;;;;;;;;;5084530;28;20244;-83
2021/12/30 09:57:34;;;;;;;0.50;0.30;;;;;;;;;;5086056;28;20666;-81
2021/12/30 10:00:01;;;;;;;0.53;0.40;;;;;;;;;;5093335;28;20237;-81
2021/12/30 10:02:28;;;;;;;0.93;0.20;;;;;;;;;;5094918;28;20261;-82
2021/12/30 10:05:03;;;;;;;1.10;0.63;;;;;;;;;;5102300;28;20229;-84
2021/12/30 10:07:31;;;;;;;0.30;0.13;;;;;;;;;;5078575;28;20736;-82
2021/12/30 10:10:03;;;;;;;1.67;0.77;;;;;;;;;;5084098;28;20202;-82
2021/12/30 10:12:40;;;;;;;0.33;0.20;;;;;;;;;;5085935;28;20198;-83
2021/12/30 10:15:08;;;;;;;0.13;0.10;;;;;;;;;;5081840;28;20218;-81
2021/12/30 10:17:35;;;;;;;1.17;0.30;;;;;;;;;;5078373;28;20214;-83
2021/12/30 10:20:16;;;;;;;0.60;0.30;;;;;;;;;;5063930;28;20229;-84
2021/12/30 10:22:43;;;;;;;1.17;0.30;;;;;;;;;;5081501;28;20691;-82
2021/12/30 10:25:26;;;;;;;0.20;0.20;;;;;;;;;;5082653;28;20218;-83
2021/12/30 10:27:55;;;;;;;1.23;0.50;;;;;;;;;;5084451;28;20189;-83
2021/12/30 10:30:32;;;;;;;0.53;0.33;;;;;;;;;;5082722;28;20720;-83
2021/12/30 10:33:11;;;;;;;3.03;0.60;;;;;;;;;;5080547;28;20586;-82
2021/12/30 10:35:38;;;;;;;2.57;0.60;;;;;;;;;;5083153;28;20668;-83
2021/12/30 10:38:12;;;;;;;0.83;0.30;;;;;;;;;;5082675;28;20246;-82
2021/12/30 10:40:42;;;;;;;1.83;0.40;;;;;;;;;;5082883;28;20252;-82
2021/12/30 10:43:24;;;;;;;1.33;0.60;;;;;;;;;;5082941;28;20194;-82
2021/12/30 10:46:18;;;;;;;1.40;0.30;;;;;;;;;;5083598;28;20198;-82
2021/12/30 10:49:04;;;;;;;2.67;0.40;;;;;;;;;;5082884;28;20222;-84
2021/12/30 10:51:36;;;;;;;0.93;0.30;;;;;;;;;;5074758;28;20283;-82
2021/12/30 10:54:11;;;;;;;0.20;0.13;;;;;;;;;;5083132;28;20249;-83
2021/12/30 10:56:42;;;;;;;2.17;0.40;;;;;;;;;;5083132;28;20608;-82
2021/12/30 11:11:34;;;;;;;0.23;0.23;;;;;;;;;;5087958;28;20197;-82
2021/12/30 11:14:02;;;;;;;0.37;0.30;;;;;;;;;;5083719;28;20321;-83
2021/12/30 11:16:29;;;;;;;0.30;0.20;;;;;;;;;;5081738;28;20579;-82
2021/12/30 11:18:57;;;;;;;0.40;0.30;;;;;;;;;;5086538;28;20225;-82
2021/12/30 11:21:37;;;;;;;0.30;0.20;;;;;;;;;;5086375;28;20229;-83
2021/12/30 11:24:05;;;;;;;0.73;0.20;;;;;;;;;;5086582;28;20257;-83
2021/12/30 11:26:34;;;;;;;0.70;0.30;;;;;;;;;;5087221;28;20229;-82
2021/12/30 11:29:02;;;;;;;0.80;0.27;;;;;;;;;;5085724;28;20725;-83
2021/12/30 11:31:30;;;;;;;1.00;0.30;;;;;;;;;;5085149;28;20206;-84
2021/12/30 11:33:57;;;;;;;0.73;0.30;;;;;;;;;;5086403;28;20726;-84
2021/12/30 11:36:25;;;;;;;0.30;0.20;;;;;;;;;;5086939;28;20214;-85
2021/12/30 11:38:53;;;;;;;0.30;0.23;;;;;;;;;;5086026;28;20210;-84
2021/12/30 11:41:24;;;;;;;0.87;0.50;;;;;;;;;;5088506;28;20218;-84
2021/12/30 11:43:53;;;;;;;3.23;0.50;;;;;;;;;;5088781;28;20285;-84
2021/12/30 11:46:47;;;;;;;1.00;0.40;;;;;;;;;;5089306;28;20214;-84
2021/12/30 11:49:17;;;;;;;2.53;0.50;;;;;;;;;;5073785;28;20225;-84
2021/12/30 11:51:47;;;;;;;1.10;0.30;;;;;;;;;;5085121;28;20209;-84
2021/12/30 11:54:35;;;;;;;4.20;1.93;;;;;;;;;;5086847;28;20226;-84
2021/12/30 11:57:21;;;;;;;5.27;4.43;;;;;;;;;;5088649;28;20217;-83
2021/12/30 11:59:50;;;;;;;0.73;0.63;;;;;;;;;;5090336;28;20233;-84
2021/12/30 12:02:33;;;;;;;13.90;8.50;;;;;;;;;;5081887;28;20381;-82
2021/12/30 12:05:21;;;;;;;19.90;11.37;;;;;;;;;;5081339;28;20238;-83
2021/12/30 12:08:03;;;;;;;6.00;2.73;;;;;;;;;;5079320;28;20220;-83
2021/12/30 12:10:31;;;;;;;4.27;2.83;;;;;;;;;;5080354;28;20183;-83
2021/12/30 12:12:58;;;;;;;6.90;4.53;;;;;;;;;;5081733;28;20210;-84
2021/12/30 12:15:43;;;;;;;4.73;3.53;;;;;;;;;;5075682;28;20237;-84
2021/12/30 12:18:14;;;;;;;0.43;0.40;;;;;;;;;;5080137;28;20208;-82
2021/12/30 12:20:52;;;;;;;3.00;2.10;;;;;;;;;;5073511;28;20202;-83
2021/12/30 12:23:32;;;;;;;7.40;4.97;;;;;;;;;;5085887;28;20226;-84
2021/12/30 12:26:06;;;;;;;8.60;3.50;;;;;;;;;;5082125;28;20198;-82
2021/12/30 12:28:34;;;;;;;6.17;4.10;;;;;;;;;;5082718;28;20583;-84
2021/12/30 12:31:03;;;;;;;1.40;0.40;;;;;;;;;;5076570;28;20236;-84
2021/12/30 12:33:32;;;;;;;6.30;2.10;;;;;;;;;;5105684;28;20222;-84
2021/12/30 12:36:00;;;;;;;3.07;1.83;;;;;;;;;;5091121;28;20691;-85
2021/12/30 12:38:37;;;;;;;2.90;1.10;;;;;;;;;;5077159;28;20202;-83
2021/12/30 12:41:16;;;;;;;1.93;1.10;;;;;;;;;;5070820;28;20198;-84
2021/12/30 12:43:43;;;;;;;3.33;1.90;;;;;;;;;;5068667;28;20218;-81
2021/12/30 12:46:12;;;;;;;8.83;5.57;;;;;;;;;;5068588;28;20209;-82
2021/12/30 12:48:41;;;;;;;5.07;2.97;;;;;;;;;;5071843;28;20207;-81
2021/12/30 12:51:09;;;;;;;7.33;3.53;;;;;;;;;;5067721;28;20238;-83
2021/12/30 12:53:48;;;;;;;26.93;14.30;;;;;;;;;;5069681;28;20280;-82
2021/12/30 12:56:16;;;;;;;11.67;6.83;;;;;;;;;;5063755;28;20221;-81
2021/12/30 12:58:45;;;;;;;2.20;0.70;;;;;;;;;;5077238;28;20695;-83
2021/12/30 13:01:18;;;;;;;3.23;1.30;;;;;;;;;;5072727;28;20230;-84
2021/12/30 13:03:49;;;;;;;2.13;0.70;;;;;;;;;;5072447;28;20211;-83
2021/12/30 13:06:19;;;;;;;1.87;0.83;;;;;;;;;;5069960;28;20211;-83
2021/12/30 13:08:47;;;;;;;3.27;1.87;;;;;;;;;;5072845;28;20210;-86
2021/12/30 13:11:25;;;;;;;3.00;1.53;;;;;;;;;;5069213;28;20222;-84
2021/12/30 13:13:52;;;;;;;1.60;0.70;;;;;;;;;;5071661;28;20273;-85
2021/12/30 13:16:26;;;;;;;2.00;1.37;;;;;;;;;;5073380;28;20203;-85
2021/12/30 13:19:04;;;;;;;3.10;2.20;;;;;;;;;;5088929;28;20229;-80
2021/12/30 13:21:38;;;;;;;1.30;0.90;;;;;;;;;;5088529;28;20264;-80
2021/12/30 13:24:06;;;;;;;3.17;1.80;;;;;;;;;;5085446;28;20222;-81
2021/12/30 13:26:37;;;;;;;10.70;6.67;;;;;;;;;;5086127;28;20206;-80
2021/12/30 13:29:05;;;;;;;4.40;3.00;;;;;;;;;;5075765;28;20194;-83
2021/12/30 13:31:33;;;;;;;3.27;0.87;;;;;;;;;;5063354;28;20288;-84
2021/12/30 13:34:02;;;;;;;2.07;1.33;;;;;;;;;;5067628;28;20258;-84
2021/12/30 13:36:29;;;;;;;1.27;1.00;;;;;;;;;;5061736;28;20636;-82
2021/12/30 13:39:09;;;;;;;5.47;2.13;;;;;;;;;;5072254;28;20293;-83
2021/12/30 13:41:37;;;;;;;6.77;4.03;;;;;;;;;;5071344;28;20290;-83
2021/12/30 13:44:07;;;;;;;2.17;0.70;;;;;;;;;;5067990;28;20623;-83
2021/12/30 13:46:36;;;;;;;3.83;1.77;;;;;;;;;;5074860;28;20204;-83
2021/12/30 13:49:03;;;;;;;6.87;4.30;;;;;;;;;;5064935;28;20262;-84
2021/12/30 13:51:31;;;;;;;3.43;2.10;;;;;;;;;;5076839;28;20233;-83
2021/12/30 13:53:59;;;;;;;1.73;1.00;;;;;;;;;;5073721;28;20662;-82
2021/12/30 13:56:27;;;;;;;8.30;1.50;;;;;;;;;;5080749;28;20250;-81
2021/12/30 13:58:56;;;;;;;5.73;1.30;;;;;;;;;;5079763;28;20206;-84
2021/12/30 14:01:24;;;;;;;2.60;1.77;;;;;;;;;;5073305;28;20284;-81
2021/12/30 14:03:54;;;;;;;3.73;1.10;;;;;;;;;;5066633;28;20258;-85
2021/12/30 14:06:22;;;;;;;2.07;1.40;;;;;;;;;;5068419;28;20190;-81
2021/12/30 14:08:50;;;;;;;3.33;1.93;;;;;;;;;;5070796;28;20208;-84
2021/12/30 14:11:18;;;;;;;2.60;0.83;;;;;;;;;;5069202;28;21489;-84
2021/12/30 14:13:46;;;;;;;3.30;0.87;;;;;;;;;;5073935;28;20254;-84
2021/12/30 14:16:17;;;;;;;2.07;0.90;;;;;;;;;;5071311;28;20205;-84
2021/12/30 14:18:46;;;;;;;2.20;0.60;;;;;;;;;;5070940;28;20302;-82
2021/12/30 14:21:14;;;;;;;3.30;1.10;;;;;;;;;;5070804;28;20222;-83
2021/12/30 14:23:43;;;;;;;1.60;1.03;;;;;;;;;;5070588;28;20244;-85
2021/12/30 14:26:16;;;;;;;1.70;0.80;;;;;;;;;;5072166;28;20285;-84
2021/12/30 14:28:51;;;;;;;1.57;0.70;;;;;;;;;;5079808;28;20205;-81
2021/12/30 14:31:19;;;;;;;4.83;2.70;;;;;;;;;;5080252;28;20269;-83
2021/12/30 14:33:46;;;;;;;2.93;1.53;;;;;;;;;;5074201;28;20246;-83
2021/12/30 14:36:16;;;;;;;2.23;0.90;;;;;;;;;;5077664;28;20236;-81
2021/12/30 14:38:44;;;;;;;6.47;1.23;;;;;;;;;;5063819;28;20237;-83
2021/12/30 14:41:13;;;;;;;3.90;1.13;;;;;;;;;;5061016;28;20198;-81
2021/12/30 14:43:59;;;;;;;3.90;1.33;;;;;;;;;;5062896;28;20305;-82
2021/12/30 14:46:26;;;;;;;3.20;1.70;;;;;;;;;;5066185;28;20211;-82
2021/12/30 14:49:00;;;;;;;3.43;1.23;;;;;;;;;;5066875;28;20207;-83
2021/12/30 14:51:33;;;;;;;3.80;1.53;;;;;;;;;;5067434;28;20769;-83
2021/12/30 14:54:00;;;;;;;5.73;1.90;;;;;;;;;;5071351;28;20226;-84
2021/12/30 14:56:28;;;;;;;3.43;1.90;;;;;;;;;;5068384;28;20238;-83
2021/12/30 14:58:55;;;;;;;5.70;2.80;;;;;;;;;;5069050;28;20759;-83
2021/12/30 15:01:22;;;;;;;10.13;5.40;;;;;;;;;;5068996;28;20755;-82
2021/12/30 15:03:49;;;;;;;6.80;3.53;;;;;;;;;;5073914;28;20237;-82
2021/12/30 15:06:16;;;;;;;6.80;4.20;;;;;;;;;;5069004;28;20198;-83
2021/12/30 15:08:45;;;;;;;3.40;2.17;;;;;;;;;;5072303;28;20215;-83
2021/12/30 15:11:12;;;;;;;5.20;2.73;;;;;;;;;;5068421;28;20234;-83
2021/12/30 15:13:39;;;;;;;4.07;2.27;;;;;;;;;;5074588;28;20230;-84
2021/12/30 15:16:08;;;;;;;7.93;3.20;;;;;;;;;;5078214;28;20639;-83
2021/12/30 15:18:35;;;;;;;15.67;7.00;;;;;;;;;;5069548;28;20215;-84
2021/12/30 15:21:02;;;;;;;20.73;10.47;;;;;;;;;;5067049;28;20261;-83
2021/12/30 15:23:29;;;;;;;6.60;3.13;;;;;;;;;;5066530;28;20283;-82
2021/12/30 15:25:58;;;;;;;10.13;5.10;;;;;;;;;;5065710;28;20199;-82
2021/12/30 15:28:25;;;;;;;15.43;8.03;;;;;;;;;;5062852;28;20301;-84
2021/12/30 15:30:53;;;;;;;10.03;5.73;;;;;;;;;;5061003;28;20691;-82
2021/12/30 15:33:20;;;;;;;9.83;4.70;;;;;;;;;;5062595;28;20478;-84
2021/12/30 15:35:49;;;;;;;9.20;4.80;;;;;;;;;;5083398;28;20190;-82
2021/12/30 15:38:17;;;;;;;11.13;6.33;;;;;;;;;;5081423;28;20213;-83
2021/12/30 15:40:46;;;;;;;6.17;3.47;;;;;;;;;;5075057;28;20233;-82
2021/12/30 15:43:15;;;;;;;8.80;4.03;;;;;;;;;;5069007;28;20213;-84
2021/12/30 15:45:42;;;;;;;3.90;1.70;;;;;;;;;;5070414;28;20675;-83